createdAt,value
2022-10-23T00:01:45.735Z,100.00
2022-10-23T00:04:17.686Z,100.00
2022-10-23T00:06:48.480Z,100.00
2022-10-23T00:09:21.426Z,100.00
2022-10-23T00:11:51.312Z,100.00
2022-10-23T00:14:22.917Z,100.00
2022-10-23T00:16:51.644Z,100.00
2022-10-23T00:19:20.256Z,100.00
2022-10-23T00:21:51.632Z,100.00
2022-10-23T00:24:20.264Z,100.00
2022-10-23T00:26:51.545Z,100.00
2022-10-23T00:29:20.185Z,100.00
2022-10-23T00:31:48.809Z,100.00
2022-10-23T00:34:19.812Z,100.00
2022-10-23T00:36:49.533Z,100.00
2022-10-23T00:39:18.422Z,100.00
2022-10-23T00:41:47.173Z,100.00
2022-10-23T00:44:49.131Z,100.00
2022-10-23T00:47:18.543Z,100.00
2022-10-23T00:49:47.167Z,100.00
2022-10-23T00:52:16.986Z,100.00
2022-10-23T00:54:45.626Z,100.00
2022-10-23T00:57:16.556Z,100.00
2022-10-23T00:59:45.454Z,100.00
2022-10-23T01:02:14.263Z,100.00
2022-10-23T01:04:43.114Z,100.00
2022-10-23T01:07:19.939Z,100.00
2022-10-23T01:09:56.881Z,100.00
2022-10-23T01:12:39.699Z,100.00
2022-10-23T01:15:14.900Z,100.00
2022-10-23T01:17:47.443Z,100.00
2022-10-23T01:20:44.431Z,100.00
2022-10-23T01:23:43.462Z,100.00
2022-10-23T01:26:33.344Z,100.00
2022-10-23T01:29:08.175Z,100.00
2022-10-23T01:31:43.863Z,100.00
2022-10-23T01:34:18.940Z,100.00
2022-10-23T01:36:52.448Z,100.00
2022-10-23T01:39:27.453Z,100.00
2022-10-23T01:41:59.761Z,100.00
2022-10-23T01:44:39.528Z,100.00
2022-10-23T01:47:12.478Z,100.00
2022-10-23T01:49:59.057Z,100.00
2022-10-23T01:52:28.636Z,100.00
2022-10-23T01:55:01.640Z,100.00
2022-10-23T01:57:36.643Z,100.00
2022-10-23T02:00:12.514Z,100.00
2022-10-23T02:02:55.899Z,100.00
2022-10-23T02:05:32.541Z,100.00
2022-10-23T02:08:03.633Z,100.00
2022-10-23T02:10:41.166Z,100.00
2022-10-23T02:13:18.030Z,100.00
2022-10-23T02:15:58.060Z,100.00
2022-10-23T02:18:38.995Z,100.00
2022-10-23T02:21:11.364Z,100.00
2022-10-23T02:23:50.377Z,100.00
2022-10-23T02:26:26.442Z,100.00
2022-10-23T02:29:06.817Z,100.00
2022-10-23T02:31:37.243Z,100.00
2022-10-23T02:34:05.956Z,100.00
2022-10-23T02:36:34.640Z,100.00
2022-10-23T02:39:04.475Z,100.00
2022-10-23T02:41:44.394Z,100.00
2022-10-23T02:44:40.782Z,100.00
2022-10-23T02:47:22.653Z,100.00
2022-10-23T02:50:04.523Z,100.00
2022-10-23T02:52:44.043Z,100.00
2022-10-23T02:55:23.121Z,100.00
2022-10-23T02:57:58.880Z,100.00
2022-10-23T03:00:32.819Z,100.00
2022-10-23T03:03:12.460Z,100.00
2022-10-23T03:05:44.901Z,100.00
2022-10-23T03:08:16.288Z,100.00
2022-10-23T03:10:45.077Z,100.00
2022-10-23T03:13:13.904Z,100.00
2022-10-23T03:15:44.651Z,100.00
2022-10-23T03:18:16.915Z,100.00
2022-10-23T03:20:51.805Z,100.00
2022-10-23T03:23:23.915Z,100.00
2022-10-23T03:25:53.353Z,100.00
2022-10-23T03:28:42.679Z,100.00
2022-10-23T03:31:11.183Z,100.00
2022-10-23T03:33:42.701Z,100.00
2022-10-23T03:36:13.640Z,100.00
2022-10-23T03:38:42.345Z,100.00
2022-10-23T03:41:12.450Z,100.00
2022-10-23T03:43:41.050Z,100.00
2022-10-23T03:46:12.709Z,100.00
2022-10-23T03:48:42.439Z,100.00
2022-10-23T03:51:11.482Z,100.00
2022-10-23T03:53:42.555Z,100.00
2022-10-23T03:56:11.276Z,100.00
2022-10-23T03:58:42.010Z,100.00
2022-10-23T04:01:10.972Z,100.00
2022-10-23T04:03:41.126Z,100.00
2022-10-23T04:06:10.121Z,100.00
2022-10-23T04:08:39.767Z,100.00
2022-10-23T04:11:15.767Z,100.00
2022-10-23T04:13:47.514Z,100.00
2022-10-23T04:16:16.287Z,100.00
2022-10-23T04:18:47.578Z,100.00
2022-10-23T04:21:16.221Z,100.00
2022-10-23T04:23:45.255Z,100.00
2022-10-23T04:26:16.172Z,100.00
2022-10-23T04:28:44.870Z,100.00
2022-10-23T04:31:13.883Z,100.00
2022-10-23T04:33:43.957Z,100.00
2022-10-23T04:36:24.868Z,100.00
2022-10-23T04:38:53.724Z,100.00
2022-10-23T04:41:22.620Z,100.00
2022-10-23T04:43:51.310Z,100.00
2022-10-23T04:46:20.096Z,100.00
2022-10-23T04:48:50.303Z,100.00
2022-10-23T04:51:39.241Z,100.00
2022-10-23T04:54:15.159Z,100.00
2022-10-23T04:56:59.558Z,100.00
2022-10-23T04:59:34.892Z,100.00
2022-10-23T05:02:03.653Z,100.00
2022-10-23T05:04:32.488Z,100.00
2022-10-23T05:07:41.225Z,100.00
2022-10-23T05:10:30.454Z,100.00
2022-10-23T05:13:19.738Z,100.00
2022-10-23T05:15:49.015Z,100.00
2022-10-23T05:18:24.105Z,100.00
2022-10-23T05:20:58.486Z,100.00
2022-10-23T05:23:29.275Z,100.00
2022-10-23T05:26:03.246Z,100.00
2022-10-23T05:28:33.297Z,100.00
2022-10-23T05:31:06.019Z,100.00
2022-10-23T05:33:38.295Z,100.00
2022-10-23T05:36:08.352Z,100.00
2022-10-23T05:38:38.510Z,100.00
2022-10-23T05:41:14.572Z,100.00
2022-10-23T05:43:43.430Z,100.00
2022-10-23T05:46:32.117Z,100.00
2022-10-23T05:49:19.453Z,100.00
2022-10-23T05:52:06.813Z,100.00
2022-10-23T05:54:48.972Z,100.00
2022-10-23T05:57:38.049Z,100.00
2022-10-23T06:00:12.049Z,100.00
2022-10-23T06:02:43.255Z,100.00
2022-10-23T06:08:32.066Z,100.00
2022-10-23T06:11:07.694Z,100.00
2022-10-23T06:13:37.739Z,100.00
2022-10-23T06:16:10.921Z,100.00
2022-10-23T06:18:40.604Z,100.00
2022-10-23T06:21:15.069Z,100.00
2022-10-23T06:23:46.302Z,100.00
2022-10-23T06:26:35.008Z,100.00
2022-10-23T06:29:10.133Z,100.00
2022-10-23T06:31:39.974Z,100.00
2022-10-23T06:34:11.662Z,100.00
2022-10-23T06:36:40.583Z,100.00
2022-10-23T06:39:29.911Z,100.00
2022-10-23T06:42:12.087Z,100.00
2022-10-23T06:44:55.404Z,100.00
2022-10-23T06:47:42.850Z,100.00
2022-10-23T06:50:38.698Z,100.00
2022-10-23T06:53:13.137Z,100.00
2022-10-23T06:55:50.226Z,100.00
2022-10-23T06:58:23.320Z,100.00
2022-10-23T07:01:02.819Z,100.00
2022-10-23T07:03:31.877Z,100.00
2022-10-23T07:06:02.693Z,100.00
2022-10-23T07:08:31.521Z,100.00
2022-10-23T07:11:03.834Z,100.00
2022-10-23T07:13:36.332Z,100.00
2022-10-23T07:16:18.701Z,100.00
2022-10-23T07:18:48.741Z,100.00
2022-10-23T07:21:37.929Z,100.00
2022-10-23T07:24:25.059Z,100.00
2022-10-23T07:26:55.865Z,100.00
2022-10-23T07:29:27.157Z,100.00
2022-10-23T07:31:55.876Z,100.00
2022-10-23T07:34:44.767Z,100.00
2022-10-23T07:37:27.358Z,100.00
2022-10-23T07:39:56.011Z,100.00
2022-10-23T07:42:25.740Z,100.00
2022-10-23T07:44:55.612Z,100.00
2022-10-23T07:47:25.477Z,100.00
2022-10-23T07:49:55.928Z,100.00
2022-10-23T07:52:24.643Z,100.00
2022-10-23T07:55:28.154Z,100.00
2022-10-23T07:58:07.547Z,100.00
2022-10-23T08:00:45.341Z,100.00
2022-10-23T08:03:25.334Z,100.00
2022-10-23T08:05:55.173Z,100.00
2022-10-23T08:08:25.627Z,100.00
2022-10-23T08:10:57.993Z,100.00
2022-10-23T08:13:31.608Z,100.00
2022-10-23T08:16:06.842Z,100.00
2022-10-23T08:18:53.844Z,100.00
2022-10-23T08:21:23.420Z,100.00
2022-10-23T08:23:55.810Z,100.00
2022-10-23T08:26:25.858Z,100.00
2022-10-23T08:28:55.032Z,100.00
2022-10-23T08:31:26.342Z,100.00
2022-10-23T08:34:15.343Z,100.00
2022-10-23T08:36:46.225Z,100.00
2022-10-23T08:39:15.743Z,100.00
2022-10-23T08:41:58.964Z,100.00
2022-10-23T08:44:36.455Z,100.00
2022-10-23T08:47:13.112Z,100.00
2022-10-23T08:50:07.953Z,100.00
2022-10-23T08:52:42.697Z,100.00
2022-10-23T08:55:22.146Z,100.00
2022-10-23T08:57:59.740Z,100.00
2022-10-23T09:00:30.074Z,100.00
2022-10-23T09:03:06.151Z,100.00
2022-10-23T09:05:50.643Z,100.00
2022-10-23T09:08:42.674Z,100.00
2022-10-23T09:11:25.480Z,100.00
2022-10-23T09:14:50.001Z,100.00
2022-10-23T09:17:25.682Z,100.00
2022-10-23T09:20:08.647Z,100.00
2022-10-23T09:22:37.345Z,100.00
2022-10-23T09:25:11.943Z,100.00
2022-10-23T09:27:45.968Z,100.00
2022-10-23T09:30:25.804Z,100.00
2022-10-23T09:32:54.227Z,100.00
2022-10-23T09:35:26.971Z,100.00
2022-10-23T09:37:56.338Z,100.00
2022-10-23T09:40:33.353Z,100.00
2022-10-23T09:43:04.998Z,100.00
2022-10-23T09:45:36.116Z,100.00
2022-10-23T09:48:14.702Z,100.00
2022-10-23T09:50:54.719Z,100.00
2022-10-23T09:53:39.378Z,100.00
2022-10-23T09:56:25.634Z,100.00
2022-10-23T09:58:58.651Z,100.00
2022-10-23T10:01:30.769Z,100.00
2022-10-23T10:04:16.722Z,100.00
2022-10-23T10:06:46.954Z,100.00
2022-10-23T10:09:17.997Z,100.00
2022-10-23T10:11:55.297Z,100.00
2022-10-23T10:14:49.581Z,100.00
2022-10-23T10:17:31.218Z,100.00
2022-10-23T10:20:36.345Z,99.71
2022-10-23T10:23:14.081Z,100.00
2022-10-23T10:25:55.297Z,100.00
2022-10-23T10:28:54.913Z,100.00
2022-10-23T10:31:41.409Z,100.00
2022-10-23T10:34:22.728Z,100.00
2022-10-23T10:36:55.860Z,100.00
2022-10-23T10:39:45.315Z,100.00
2022-10-23T10:42:41.511Z,97.96
2022-10-23T10:45:24.333Z,100.00
2022-10-23T10:48:17.949Z,100.00
2022-10-23T10:51:08.842Z,96.28
2022-10-23T10:54:10.809Z,94.78
2022-10-23T10:56:44.929Z,94.63
2022-10-23T10:59:24.581Z,95.17
2022-10-23T11:02:01.199Z,95.37
2022-10-23T11:04:37.648Z,90.30
2022-10-23T11:07:12.029Z,85.29
2022-10-23T11:09:43.078Z,82.00
2022-10-23T11:12:23.775Z,85.81
2022-10-23T11:14:52.938Z,88.19
2022-10-23T11:17:28.921Z,91.90
2022-10-23T11:20:06.895Z,91.30
2022-10-23T11:22:43.903Z,88.88
2022-10-23T11:25:41.860Z,85.92
2022-10-23T11:28:26.488Z,87.88
2022-10-23T11:31:11.872Z,86.75
2022-10-23T11:34:09.604Z,89.81
2022-10-23T11:36:55.300Z,91.64
2022-10-23T11:39:26.975Z,97.35
2022-10-23T11:42:00.713Z,95.38
2022-10-23T11:44:44.572Z,95.69
2022-10-23T11:47:33.926Z,94.12
2022-10-23T11:50:27.441Z,93.80
2022-10-23T11:53:14.593Z,96.61
2022-10-23T11:56:06.747Z,96.70
2022-10-23T11:58:49.013Z,94.42
2022-10-23T12:01:29.358Z,94.59
2022-10-23T12:04:01.695Z,97.76
2022-10-23T12:06:34.067Z,98.43
2022-10-23T12:09:28.223Z,100.00
2022-10-23T12:12:16.521Z,100.00
2022-10-23T12:14:48.305Z,100.00
2022-10-23T12:17:37.741Z,100.00
2022-10-23T12:20:30.491Z,100.00
2022-10-23T12:23:13.878Z,100.00
2022-10-23T12:25:52.214Z,100.00
2022-10-23T12:28:33.527Z,100.00
2022-10-23T12:31:18.797Z,100.00
2022-10-23T12:34:05.185Z,100.00
2022-10-23T12:36:58.135Z,100.00
2022-10-23T12:39:31.183Z,100.00
2022-10-23T12:42:01.479Z,100.00
2022-10-23T12:44:30.473Z,100.00
2022-10-23T12:47:03.254Z,100.00
2022-10-23T12:49:35.478Z,100.00
2022-10-23T12:52:06.931Z,100.00
2022-10-23T12:54:40.714Z,100.00
2022-10-23T12:57:23.512Z,100.00
2022-10-23T12:59:56.371Z,100.00
2022-10-23T13:02:28.340Z,100.00
2022-10-23T13:05:03.825Z,100.00
2022-10-23T13:07:38.449Z,100.00
2022-10-23T13:10:12.569Z,100.00
2022-10-23T13:12:56.956Z,100.00
2022-10-23T13:15:26.877Z,100.00
2022-10-23T13:18:07.018Z,100.00
2022-10-23T13:20:39.778Z,100.00
2022-10-23T13:23:19.445Z,100.00
2022-10-23T13:25:55.954Z,100.00
2022-10-23T13:28:27.201Z,100.00
2022-10-23T13:31:21.394Z,100.00
2022-10-23T13:33:52.624Z,100.00
2022-10-23T13:36:27.454Z,100.00
2022-10-23T13:39:13.550Z,100.00
2022-10-23T13:41:45.248Z,100.00
2022-10-23T13:44:17.090Z,100.00
2022-10-23T13:46:46.038Z,100.00
2022-10-23T13:49:14.927Z,100.00
2022-10-23T13:51:50.103Z,100.00
2022-10-23T13:54:21.686Z,100.00
2022-10-23T13:56:50.435Z,100.00
2022-10-23T13:59:19.689Z,100.00
2022-10-23T14:01:50.498Z,100.00
2022-10-23T14:04:20.485Z,100.00
2022-10-23T14:06:50.273Z,100.00
2022-10-23T14:09:19.668Z,100.00
2022-10-23T14:11:48.303Z,100.00
2022-10-23T14:14:16.983Z,100.00
2022-10-23T14:16:45.649Z,100.00
2022-10-23T14:19:14.538Z,100.00
2022-10-23T14:21:43.215Z,100.00
2022-10-23T14:24:13.000Z,100.00
2022-10-23T14:26:43.205Z,100.00
2022-10-23T14:29:19.747Z,100.00
2022-10-23T14:31:51.584Z,100.00
2022-10-23T14:34:20.101Z,100.00
2022-10-23T14:36:56.714Z,100.00
2022-10-23T14:39:34.053Z,100.00
2022-10-23T14:42:02.506Z,100.00
2022-10-23T14:44:31.135Z,100.00
2022-10-23T14:46:59.860Z,100.00
2022-10-23T14:49:28.183Z,100.00
2022-10-23T14:51:56.493Z,100.00
2022-10-23T14:54:25.447Z,100.00
2022-10-23T14:56:55.438Z,100.00
2022-10-23T14:59:24.059Z,100.00
2022-10-23T15:04:26.375Z,100.00
2022-10-23T15:06:55.105Z,100.00
2022-10-23T15:09:23.480Z,100.00
2022-10-23T15:11:52.155Z,100.00
2022-10-23T15:14:22.113Z,100.00
2022-10-23T15:16:50.824Z,100.00
2022-10-23T15:19:19.447Z,100.00
2022-10-23T15:21:48.863Z,100.00
2022-10-23T15:24:18.052Z,100.00
2022-10-23T15:26:47.005Z,100.00
2022-10-23T15:29:16.667Z,100.00
2022-10-23T15:31:50.459Z,100.00
2022-10-23T15:34:21.222Z,100.00
2022-10-23T15:36:50.646Z,100.00
2022-10-23T15:39:22.317Z,100.00
2022-10-23T15:41:54.142Z,100.00
2022-10-23T15:44:26.028Z,100.00
2022-10-23T15:46:57.367Z,100.00
2022-10-23T15:49:26.552Z,100.00
2022-10-23T15:51:55.358Z,100.00
2022-10-23T15:54:26.048Z,100.00
2022-10-23T15:56:56.914Z,100.00
2022-10-23T15:59:26.876Z,100.00
2022-10-23T16:01:57.564Z,100.00
2022-10-23T16:04:26.156Z,100.00
2022-10-23T16:06:54.812Z,100.00
2022-10-23T16:09:23.191Z,100.00
2022-10-23T16:11:51.896Z,100.00
2022-10-23T16:14:20.531Z,100.00
2022-10-23T16:16:48.944Z,100.00
2022-10-23T16:19:18.829Z,100.00
2022-10-23T16:21:47.725Z,100.00
2022-10-23T16:24:16.168Z,100.00
2022-10-23T16:26:50.326Z,100.00
2022-10-23T16:29:19.049Z,100.00
2022-10-23T16:31:47.739Z,100.00
2022-10-23T16:34:16.332Z,100.00
2022-10-23T16:36:46.627Z,100.00
2022-10-23T16:39:22.717Z,100.00
2022-10-23T16:42:13.563Z,100.00
2022-10-23T16:44:57.821Z,100.00
2022-10-23T16:47:26.544Z,100.00
2022-10-23T16:49:54.843Z,100.00
2022-10-23T16:52:24.735Z,100.00
2022-10-23T16:54:53.262Z,100.00
2022-10-23T16:57:21.757Z,100.00
2022-10-23T16:59:50.357Z,100.00
2022-10-23T17:02:19.140Z,100.00
2022-10-23T17:04:47.606Z,100.00
2022-10-23T17:07:16.028Z,100.00
2022-10-23T17:09:47.692Z,100.00
2022-10-23T17:12:16.992Z,100.00
2022-10-23T17:14:45.697Z,100.00
2022-10-23T17:17:14.385Z,100.00
2022-10-23T17:19:45.477Z,100.00
2022-10-23T17:22:14.897Z,100.00
2022-10-23T17:24:46.443Z,100.00
2022-10-23T17:27:19.155Z,100.00
2022-10-23T17:29:47.932Z,100.00
2022-10-23T17:32:16.342Z,100.00
2022-10-23T17:34:46.518Z,100.00
2022-10-23T17:37:15.247Z,100.00
2022-10-23T17:39:44.325Z,100.00
2022-10-23T17:42:12.840Z,100.00
2022-10-23T17:44:42.563Z,100.00
2022-10-23T17:47:11.198Z,100.00
2022-10-23T17:49:42.803Z,100.00
2022-10-23T17:52:14.997Z,100.00
2022-10-23T17:54:43.748Z,100.00
2022-10-23T17:57:12.844Z,100.00
2022-10-23T17:59:43.294Z,100.00
2022-10-23T18:02:14.152Z,100.00
2022-10-23T18:04:43.218Z,100.00
2022-10-23T18:07:13.176Z,100.00
2022-10-23T18:09:42.095Z,100.00
2022-10-23T18:12:11.063Z,100.00
2022-10-23T18:14:40.248Z,100.00
2022-10-23T18:17:10.463Z,100.00
2022-10-23T18:19:39.054Z,100.00
2022-10-23T18:22:07.880Z,100.00
2022-10-23T18:24:38.092Z,100.00
2022-10-23T18:27:07.417Z,100.00
2022-10-23T18:29:38.261Z,100.00
2022-10-23T18:32:07.513Z,100.00
2022-10-23T18:34:37.963Z,100.00
2022-10-23T18:37:06.938Z,100.00
2022-10-23T18:39:35.689Z,100.00
2022-10-23T18:42:04.464Z,100.00
2022-10-23T18:44:33.244Z,100.00
2022-10-23T18:47:02.273Z,100.00
2022-10-23T18:49:34.430Z,100.00
2022-10-23T18:52:04.965Z,100.00
2022-10-23T18:54:34.096Z,100.00
2022-10-23T18:57:06.217Z,100.00
2022-10-23T18:59:35.327Z,100.00
2022-10-23T19:02:04.268Z,100.00
2022-10-23T19:04:35.586Z,100.00
2022-10-23T19:07:07.058Z,100.00
2022-10-23T19:09:36.353Z,100.00
2022-10-23T19:12:05.929Z,100.00
2022-10-23T19:14:34.668Z,100.00
2022-10-23T19:17:09.138Z,100.00
2022-10-23T19:19:44.910Z,100.00
2022-10-23T19:22:20.229Z,100.00
2022-10-23T19:24:55.227Z,100.00
2022-10-23T19:27:24.608Z,100.00
2022-10-23T19:29:55.568Z,100.00
2022-10-23T19:32:24.471Z,100.00
2022-10-23T19:34:53.238Z,100.00
2022-10-23T19:37:23.648Z,100.00
2022-10-23T19:39:52.505Z,100.00
2022-10-23T19:42:21.330Z,100.00
2022-10-23T19:44:50.190Z,100.00
2022-10-23T19:47:19.096Z,100.00
2022-10-23T19:49:50.783Z,100.00
2022-10-23T19:52:22.273Z,100.00
2022-10-23T19:54:52.890Z,100.00
2022-10-23T19:57:22.639Z,100.00
2022-10-23T19:59:52.770Z,100.00
2022-10-23T20:02:22.511Z,100.00
2022-10-23T20:04:51.383Z,100.00
2022-10-23T20:07:20.280Z,100.00
2022-10-23T20:09:49.057Z,100.00
2022-10-23T20:12:19.376Z,100.00
2022-10-23T20:14:48.359Z,100.00
2022-10-23T20:17:16.843Z,100.00
2022-10-23T20:19:45.615Z,100.00
2022-10-23T20:22:14.487Z,100.00
2022-10-23T20:24:43.663Z,100.00
2022-10-23T20:27:13.851Z,100.00
2022-10-23T20:29:44.409Z,100.00
2022-10-23T20:32:14.787Z,100.00
2022-10-23T20:34:44.280Z,100.00
2022-10-23T20:37:12.951Z,100.00
2022-10-23T20:39:41.767Z,100.00
2022-10-23T20:42:10.481Z,100.00
2022-10-23T20:44:39.265Z,100.00
2022-10-23T20:47:09.432Z,100.00
2022-10-23T20:49:38.298Z,100.00
2022-10-23T20:52:06.724Z,100.00
2022-10-23T20:54:36.450Z,100.00
2022-10-23T20:57:05.493Z,100.00
2022-10-23T20:59:35.344Z,100.00
2022-10-23T21:02:03.961Z,100.00
2022-10-23T21:04:35.315Z,100.00
2022-10-23T21:07:10.047Z,100.00
2022-10-23T21:09:40.418Z,100.00
2022-10-23T21:12:10.027Z,100.00
2022-10-23T21:14:39.083Z,100.00
2022-10-23T21:17:08.567Z,100.00
2022-10-23T21:19:39.629Z,100.00
2022-10-23T21:22:08.259Z,100.00
2022-10-23T21:24:36.925Z,100.00
2022-10-23T21:27:05.439Z,100.00
2022-10-23T21:29:34.239Z,100.00
2022-10-23T21:32:02.648Z,100.00
2022-10-23T21:34:31.861Z,100.00
2022-10-23T21:37:17.638Z,100.00
2022-10-23T21:39:47.166Z,100.00
2022-10-23T21:42:16.435Z,100.00
2022-10-23T21:44:45.063Z,100.00
2022-10-23T21:47:13.433Z,100.00
2022-10-23T21:49:42.044Z,100.00
2022-10-23T21:52:13.985Z,100.00
2022-10-23T21:54:44.826Z,100.00
2022-10-23T21:57:15.639Z,100.00
2022-10-23T21:59:44.205Z,100.00
2022-10-23T22:02:12.734Z,100.00
2022-10-23T22:04:43.595Z,100.00
2022-10-23T22:07:14.985Z,100.00
2022-10-23T22:09:44.188Z,100.00
2022-10-23T22:12:13.644Z,100.00
2022-10-23T22:14:42.531Z,100.00
2022-10-23T22:17:10.916Z,100.00
2022-10-23T22:19:39.554Z,100.00
2022-10-23T22:22:08.212Z,100.00
2022-10-23T22:24:38.650Z,100.00
2022-10-23T22:27:07.095Z,100.00
2022-10-23T22:29:35.902Z,100.00
2022-10-23T22:32:04.590Z,100.00
2022-10-23T22:34:51.707Z,100.00
2022-10-23T22:37:20.906Z,100.00
2022-10-23T22:39:53.681Z,100.00
2022-10-23T22:42:22.368Z,100.00
2022-10-23T22:44:50.636Z,100.00
2022-10-23T22:47:19.368Z,100.00
2022-10-23T22:49:47.639Z,100.00
2022-10-23T22:52:15.925Z,100.00
2022-10-23T22:54:44.519Z,100.00
2022-10-23T22:57:14.240Z,100.00
2022-10-23T22:59:42.928Z,100.00
2022-10-23T23:02:11.564Z,100.00
2022-10-23T23:04:39.974Z,100.00
2022-10-23T23:07:09.453Z,100.00
2022-10-23T23:09:40.140Z,100.00
2022-10-23T23:12:10.545Z,100.00
2022-10-23T23:14:41.076Z,100.00
2022-10-23T23:17:10.620Z,100.00
2022-10-23T23:19:39.737Z,100.00
2022-10-23T23:22:08.391Z,100.00
2022-10-23T23:24:37.171Z,100.00
2022-10-23T23:27:05.986Z,100.00
2022-10-23T23:29:35.077Z,100.00
2022-10-23T23:32:06.194Z,100.00
2022-10-23T23:34:35.329Z,100.00
2022-10-23T23:37:03.981Z,100.00
2022-10-23T23:39:32.333Z,100.00
2022-10-23T23:42:01.000Z,100.00
2022-10-23T23:44:29.629Z,100.00
2022-10-23T23:46:58.195Z,100.00
2022-10-23T23:49:27.924Z,100.00
2022-10-23T23:51:56.530Z,100.00
2022-10-23T23:54:24.849Z,100.00
2022-10-23T23:56:56.712Z,100.00
2022-10-23T23:59:25.092Z,100.00
